Time;durP1;ratioP1;P1;durP2;ratioP2;P2;SDS_P1;SDS_P2;PMS_P1;PMS_P2;Temp;Humidity;BMP_temperature;BMP_pressure;BME280_temperature;BME280_humidity;BME280_pressure;Samples;Min_cycle;Max_cycle;Signal;HPM_P1;HPM_P2
2022/06/15 00:00:02;;;;;;;8.52;5.65;;;;;;;13.99;67.44;100589.03;5094641;28;20432;-60
2022/06/15 00:02:29;;;;;;;5.75;5.13;;;;;;;13.98;67.13;100580.94;5094571;28;20047;-60
2022/06/15 00:04:58;;;;;;;7.05;5.38;;;;;;;13.98;67.27;100586.53;5094094;28;20048;-60
2022/06/15 00:07:29;;;;;;;8.93;5.65;;;;;;;13.91;66.91;100580.66;5094451;28;20408;-61
2022/06/15 00:09:56;;;;;;;6.53;5.93;;;;;;;13.84;67.51;100585.94;5094645;28;20044;-59
2022/06/15 00:12:24;;;;;;;6.28;5.38;;;;;;;13.80;67.72;100581.00;5109986;28;20484;-60
2022/06/15 00:14:51;;;;;;;8.77;5.22;;;;;;;13.79;67.31;100579.34;5114453;28;20055;-60
2022/06/15 00:17:19;;;;;;;5.80;4.93;;;;;;;13.75;67.96;100578.41;5114544;28;20059;-60
2022/06/15 00:19:46;;;;;;;7.55;5.80;;;;;;;13.72;68.15;100578.22;5114784;28;20052;-60
2022/06/15 00:22:15;;;;;;;5.88;5.32;;;;;;;13.69;68.07;100567.69;5114162;28;20047;-60
2022/06/15 00:24:42;;;;;;;10.30;5.40;;;;;;;13.66;68.08;100562.78;5110017;28;20043;-59
2022/06/15 00:27:12;;;;;;;7.68;5.90;;;;;;;13.63;68.46;100558.66;5105890;28;20078;-60
2022/06/15 00:29:40;;;;;;;6.10;5.50;;;;;;;13.59;68.11;100563.28;5114209;28;20051;-60
2022/06/15 00:32:08;;;;;;;9.20;5.95;;;;;;;13.55;68.63;100562.31;5114280;28;20078;-60
2022/06/15 00:34:36;;;;;;;9.38;5.68;;;;;;;13.49;68.22;100558.03;5113956;28;20047;-60
2022/06/15 00:56:47;;;;;;;6.10;5.32;;;;;;;13.07;68.99;100546.53;4484020;22;22855;-82
2022/06/15 00:59:20;;;;;;;7.45;5.45;;;;;;;13.06;69.13;100545.72;5033129;28;20053;-80
2022/06/15 01:01:47;;;;;;;7.18;5.38;;;;;;;13.06;69.20;100545.72;5033675;28;20524;-79
2022/06/15 01:11:21;;;;;;;6.22;5.18;;;;;;;12.89;69.34;100538.16;5057090;28;20052;-80
2022/06/15 01:14:17;;;;;;;7.30;5.35;;;;;;;12.82;69.58;100546.19;5053432;28;20060;-80
2022/06/15 01:16:51;;;;;;;5.97;4.88;;;;;;;12.76;69.58;100534.34;5053413;28;20394;-79
2022/06/15 01:19:53;;;;;;;7.18;4.75;;;;;;;12.71;70.14;100533.69;5053447;28;20060;-81
2022/06/15 01:22:41;;;;;;;5.95;5.10;;;;;;;12.73;69.84;100534.19;5044124;28;20132;-79
2022/06/15 01:25:37;;;;;;;6.93;5.10;;;;;;;12.66;69.95;100539.44;5053482;28;20499;-80
2022/06/15 01:28:34;;;;;;;6.53;4.90;;;;;;;12.64;70.35;100527.75;5053700;28;20055;-80
2022/06/15 01:31:12;;;;;;;5.85;4.68;;;;;;;12.58;70.52;100538.28;5053326;28;20056;-80
2022/06/15 01:33:49;;;;;;;6.68;4.90;;;;;;;12.58;70.18;100539.09;5048169;28;20044;-80
2022/06/15 01:36:24;;;;;;;7.82;5.72;;;;;;;12.58;70.37;100538.28;5053410;28;20400;-79
2022/06/15 01:38:57;;;;;;;9.60;5.80;;;;;;;12.56;70.72;100530.22;5053567;28;20052;-79
2022/06/15 01:41:32;;;;;;;6.07;5.47;;;;;;;12.53;70.61;100533.66;5050823;28;20054;-79
2022/06/15 01:44:10;;;;;;;8.45;5.70;;;;;;;12.52;70.38;100529.22;5013772;28;20049;-79
2022/06/15 01:46:42;;;;;;;9.32;5.45;;;;;;;12.52;70.53;100534.00;5013617;28;20054;-80
2022/06/15 01:49:16;;;;;;;6.35;5.03;;;;;;;12.51;70.34;100533.16;5019949;28;20414;-80
2022/06/15 01:51:45;;;;;;;8.50;5.60;;;;;;;12.49;70.34;100532.66;5013459;28;20401;-79
2022/06/15 01:54:16;;;;;;;6.90;5.22;;;;;;;12.52;70.81;100536.78;5013345;28;20056;-80
2022/06/15 01:56:51;;;;;;;7.53;5.25;;;;;;;12.51;70.82;100526.75;5036089;28;20065;-79
2022/06/15 01:59:24;;;;;;;5.82;4.88;;;;;;;12.51;70.42;100526.75;5072600;28;20423;-80
2022/06/15 02:02:01;;;;;;;8.70;5.50;;;;;;;12.45;70.01;100526.09;5071871;28;20056;-79
2022/06/15 02:04:35;;;;;;;6.45;5.20;;;;;;;12.42;70.05;100525.91;5072696;28;20056;-79
2022/06/15 02:07:18;;;;;;;7.18;5.72;;;;;;;12.39;70.34;100530.19;5072322;28;20052;-80
2022/06/15 02:09:49;;;;;;;7.80;5.88;;;;;;;12.33;70.16;100537.09;5072233;28;20053;-80
2022/06/15 02:12:21;;;;;;;6.97;5.45;;;;;;;12.30;70.52;100537.72;5069498;28;20060;-80
2022/06/15 02:14:53;;;;;;;6.40;5.60;;;;;;;12.29;70.61;100533.28;5073077;28;20447;-79
2022/06/15 02:17:27;;;;;;;6.97;5.88;;;;;;;12.26;70.76;100531.13;5074610;28;20048;-79
2022/06/15 02:19:58;;;;;;;6.75;5.30;;;;;;;12.25;70.99;100530.31;5072542;28;20049;-79
2022/06/15 02:22:29;;;;;;;7.07;5.30;;;;;;;12.24;70.37;100525.91;5065331;28;20488;-79
2022/06/15 02:25:00;;;;;;;8.15;5.20;;;;;;;12.23;70.36;100513.06;5071038;28;20056;-80
2022/06/15 02:27:32;;;;;;;8.75;6.05;;;;;;;12.19;70.54;100512.88;5054662;28;20501;-80
2022/06/15 02:30:05;;;;;;;7.20;5.40;;;;;;;12.16;70.56;100512.72;5052670;28;20052;-80
2022/06/15 02:32:36;;;;;;;7.18;5.50;;;;;;;12.10;70.71;100514.00;5070345;28;20056;-86
2022/06/15 02:35:04;;;;;;;6.63;5.25;;;;;;;12.09;70.74;100512.34;5073959;28;20055;-86
2022/06/15 02:37:32;;;;;;;8.20;6.63;;;;;;;12.04;70.81;100504.16;5071768;28;20057;-86
2022/06/15 02:39:59;;;;;;;10.40;6.10;;;;;;;12.01;71.04;100510.34;5053168;28;20350;-86
2022/06/15 02:42:32;;;;;;;9.43;5.97;;;;;;;11.98;70.97;100506.25;5053764;28;20512;-86
2022/06/15 02:45:02;;;;;;;8.98;5.95;;;;;;;11.91;70.91;100512.31;5053657;28;20120;-86
2022/06/15 02:47:32;;;;;;;8.15;5.68;;;;;;;11.90;71.55;100512.63;5053294;28;20074;-86
2022/06/15 02:50:01;;;;;;;;;;;;;;;11.90;70.89;100504.25;5073785;28;20472;-87
2022/06/15 02:52:35;;;;;;;7.77;5.27;;;;;;;11.88;70.83;100500.91;5073799;28;19921;-86
2022/06/15 02:55:03;;;;;;;7.78;5.25;;;;;;;11.85;70.65;100507.16;5073654;28;20060;-86
2022/06/15 02:57:43;;;;;;;7.18;5.28;;;;;;;11.82;71.11;100507.78;5073617;28;20056;-86
2022/06/15 03:00:13;;;;;;;7.65;5.57;;;;;;;11.77;71.12;100509.56;5070889;28;20412;-86
2022/06/15 03:02:40;;;;;;;7.03;5.90;;;;;;;11.79;71.13;100510.09;5072205;28;20052;-80
2022/06/15 03:05:09;;;;;;;8.65;5.50;;;;;;;11.78;70.78;100505.66;5072121;28;20060;-80
2022/06/15 03:07:37;;;;;;;8.38;5.60;;;;;;;11.75;70.88;100508.25;5072520;28;20715;-80
2022/06/15 03:10:07;;;;;;;7.03;5.57;;;;;;;11.73;71.35;100503.00;5067353;28;20052;-80
2022/06/15 03:12:34;;;;;;;7.03;5.60;;;;;;;11.75;70.86;100503.50;5072458;28;20053;-79
2022/06/15 03:15:01;;;;;;;10.80;6.63;;;;;;;11.74;70.99;100501.88;5072067;28;20057;-79
2022/06/15 03:17:31;;;;;;;6.28;5.07;;;;;;;11.71;71.04;100508.06;5072281;28;20048;-80
2022/06/15 03:19:58;;;;;;;;;;;;;;;11.67;71.19;100514.63;5069355;28;20061;-79
2022/06/15 03:22:27;;;;;;;9.10;6.20;;;;;;;11.65;71.54;100509.34;5072302;28;19921;-79
2022/06/15 03:24:57;;;;;;;8.38;5.47;;;;;;;11.57;71.51;100510.16;5076433;28;20060;-80
2022/06/15 03:27:24;;;;;;;7.97;5.57;;;;;;;11.59;71.47;100513.44;5076309;28;20416;-80
2022/06/15 03:29:53;;;;;;;7.38;5.95;;;;;;;11.64;71.32;100520.84;5073129;28;20059;-80
2022/06/15 03:32:20;;;;;;;7.65;5.53;;;;;;;11.66;71.48;100516.59;5075835;28;20048;-80
2022/06/15 03:34:48;;;;;;;6.97;5.53;;;;;;;11.67;71.24;100518.22;5075161;28;20421;-80
2022/06/15 03:37:15;;;;;;;7.78;6.00;;;;;;;11.65;71.29;100517.72;5075555;28;20052;-80
2022/06/15 03:39:44;;;;;;;8.95;5.25;;;;;;;11.66;71.29;100513.81;5072903;28;20412;-80
2022/06/15 03:42:15;;;;;;;7.47;5.63;;;;;;;11.70;70.77;100520.38;5075241;28;20048;-80
2022/06/15 03:44:43;;;;;;;6.75;5.15;;;;;;;11.69;70.92;100520.72;5076334;28;20063;-80
2022/06/15 03:47:11;;;;;;;9.35;5.65;;;;;;;11.69;70.95;100515.94;5075929;28;20052;-79
2022/06/15 03:49:43;;;;;;;8.35;5.70;;;;;;;11.69;70.64;100509.53;5057845;28;20060;-81
2022/06/15 03:52:12;;;;;;;6.72;5.50;;;;;;;11.71;71.14;100513.66;5055823;28;20412;-80
2022/06/15 03:54:39;;;;;;;7.35;5.15;;;;;;;11.70;71.14;100517.59;5055458;28;20155;-81
2022/06/15 03:57:11;;;;;;;8.93;5.93;;;;;;;11.74;71.51;100517.78;5068085;28;20492;-80
2022/06/15 03:59:39;;;;;;;6.57;5.35;;;;;;;11.77;71.47;100526.31;5074046;28;20424;-80
2022/06/15 04:02:06;;;;;;;7.50;5.45;;;;;;;11.84;71.69;100525.03;5074955;28;20063;-80
2022/06/15 04:04:34;;;;;;;7.30;5.82;;;;;;;11.93;71.66;100515.59;5075471;28;20053;-80
2022/06/15 04:07:02;;;;;;;8.82;5.40;;;;;;;12.01;71.38;100514.00;5074603;28;20074;-80
2022/06/15 04:09:29;;;;;;;6.38;5.38;;;;;;;12.08;70.83;100525.50;5073963;28;20052;-80
2022/06/15 04:12:01;;;;;;;9.65;5.65;;;;;;;12.10;70.85;100514.84;5075342;28;20052;-80
2022/06/15 04:14:31;;;;;;;7.22;5.63;;;;;;;12.08;71.19;100516.31;5075042;28;20088;-80
2022/06/15 04:16:58;;;;;;;;;;;;;;;12.13;71.04;100516.16;5075888;28;20048;-80
2022/06/15 04:19:28;;;;;;;11.63;5.97;;;;;;;12.21;71.23;100520.13;5072825;28;20273;-80
2022/06/15 04:21:56;;;;;;;6.07;5.18;;;;;;;12.27;71.08;100518.81;5075050;28;20476;-80
2022/06/15 04:24:25;;;;;;;10.80;6.25;;;;;;;12.35;71.01;100518.03;5074987;28;20044;-80
2022/06/15 04:26:52;;;;;;;8.18;5.90;;;;;;;12.45;70.73;100519.66;5074644;28;20048;-80
2022/06/15 04:29:21;;;;;;;10.00;6.03;;;;;;;12.53;71.07;100518.88;5071714;28;20428;-80
2022/06/15 04:31:49;;;;;;;7.65;5.75;;;;;;;12.66;70.50;100519.88;5054964;28;20053;-80
2022/06/15 04:34:17;;;;;;;8.23;5.93;;;;;;;12.74;70.79;100522.66;5054199;28;20080;-80
2022/06/15 04:36:45;;;;;;;7.18;6.18;;;;;;;12.82;70.46;100529.41;5054629;28;20057;-80
2022/06/15 04:39:14;;;;;;;8.23;6.82;;;;;;;12.87;70.30;100520.88;5056230;28;20045;-80
2022/06/15 04:41:42;;;;;;;8.57;6.47;;;;;;;12.94;69.98;100514.78;5074938;28;20071;-79
2022/06/15 04:44:12;;;;;;;8.02;6.45;;;;;;;13.03;70.02;100517.59;5074394;28;20048;-80
2022/06/15 04:46:40;;;;;;;8.23;7.35;;;;;;;13.04;69.65;100520.06;5073917;28;20412;-80
2022/06/15 04:49:09;;;;;;;9.43;6.60;;;;;;;13.12;70.00;100522.03;5071710;28;20044;-79
2022/06/15 04:51:41;;;;;;;8.70;6.72;;;;;;;13.19;69.57;100521.53;5073830;28;20048;-80
2022/06/15 04:54:10;;;;;;;9.07;6.65;;;;;;;13.30;68.74;100522.03;5074240;28;20059;-79
2022/06/15 04:56:38;;;;;;;9.07;6.90;;;;;;;13.33;69.03;100525.00;5074044;28;20076;-80
2022/06/15 04:59:06;;;;;;;7.30;6.55;;;;;;;13.39;69.44;100526.44;5070902;28;20068;-79
2022/06/15 05:01:34;;;;;;;9.80;6.40;;;;;;;13.47;69.00;100526.75;5074340;28;20052;-79
2022/06/15 05:04:01;;;;;;;7.25;6.25;;;;;;;13.54;68.51;100527.06;5073663;28;20056;-80
2022/06/15 05:06:35;;;;;;;8.52;7.30;;;;;;;13.61;68.26;100521.78;5074766;28;20408;-81
2022/06/15 05:09:04;;;;;;;8.65;7.15;;;;;;;13.67;67.98;100523.25;5072699;28;20492;-80
2022/06/15 05:11:32;;;;;;;12.40;7.38;;;;;;;13.77;67.93;100524.84;5073508;28;20404;-79
2022/06/15 05:14:00;;;;;;;10.13;7.55;;;;;;;13.82;67.58;100524.69;5073510;28;20048;-80
2022/06/15 05:16:28;;;;;;;10.85;7.68;;;;;;;13.85;67.68;100524.00;5073568;28;20075;-79
2022/06/15 05:18:56;;;;;;;12.65;7.55;;;;;;;13.95;67.75;100525.63;5068534;28;20041;-80
2022/06/15 05:21:23;;;;;;;10.15;7.57;;;;;;;13.98;67.46;100527.72;5072654;28;20052;-80
2022/06/15 05:23:52;;;;;;;11.15;8.63;;;;;;;14.03;67.56;100521.97;5073566;28;20055;-80
2022/06/15 05:26:24;;;;;;;12.02;8.88;;;;;;;14.08;67.60;100518.16;5073315;28;20052;-80
2022/06/15 05:28:52;;;;;;;12.70;10.13;;;;;;;14.18;66.99;100517.75;5070746;28;20056;-82
2022/06/15 05:31:22;;;;;;;11.80;9.30;;;;;;;14.30;66.98;100517.03;5062013;28;20052;-79
2022/06/15 05:33:53;;;;;;;11.20;8.80;;;;;;;14.38;66.73;100521.75;5053338;28;20053;-80
2022/06/15 05:36:23;;;;;;;9.60;8.50;;;;;;;14.47;66.80;100519.75;5053447;28;20409;-80
2022/06/15 05:38:52;;;;;;;12.00;9.20;;;;;;;14.56;67.31;100528.94;5052797;28;20056;-81
2022/06/15 05:41:20;;;;;;;13.00;8.20;;;;;;;14.60;66.99;100529.09;5068043;28;20401;-79
2022/06/15 05:43:47;;;;;;;9.85;7.88;;;;;;;14.68;66.93;100525.41;5072839;28;20056;-80
2022/06/15 05:46:16;;;;;;;9.45;8.45;;;;;;;14.73;67.04;100522.38;5072918;28;20048;-80
2022/06/15 05:48:44;;;;;;;11.30;8.70;;;;;;;14.84;66.78;100524.78;5067431;28;20052;-80
2022/06/15 05:51:11;;;;;;;11.00;8.25;;;;;;;14.94;66.74;100525.19;5071635;28;20052;-79
2022/06/15 05:53:38;;;;;;;10.68;8.70;;;;;;;15.02;67.09;100520.66;5072416;28;20066;-80
2022/06/15 05:56:07;;;;;;;9.10;7.68;;;;;;;15.11;66.64;100521.41;5072768;28;20060;-80
2022/06/15 05:58:34;;;;;;;11.37;8.33;;;;;;;15.20;66.29;100526.94;5062638;28;20052;-80
2022/06/15 06:01:09;;;;;;;12.65;9.13;;;;;;;15.30;65.94;100523.69;5052843;28;20060;-80
2022/06/15 06:03:37;;;;;;;13.90;9.13;;;;;;;15.37;66.14;100517.53;5053396;28;20057;-80
2022/06/15 06:06:04;;;;;;;13.50;9.32;;;;;;;15.44;65.98;100517.78;5067796;28;20615;-80
2022/06/15 06:08:32;;;;;;;11.25;9.07;;;;;;;15.51;65.83;100520.84;5071098;28;20055;-80
2022/06/15 06:10:59;;;;;;;9.57;8.43;;;;;;;15.61;65.54;100519.59;5072495;28;20048;-80
2022/06/15 06:13:28;;;;;;;10.55;7.97;;;;;;;15.71;65.57;100521.16;5068534;28;20488;-80
2022/06/15 06:15:56;;;;;;;12.00;8.95;;;;;;;15.82;65.35;100522.34;5067823;28;20052;-80
2022/06/15 06:18:23;;;;;;;9.48;8.48;;;;;;;15.91;65.19;100527.88;5066344;28;20048;-81
2022/06/15 06:20:51;;;;;;;9.75;8.43;;;;;;;15.96;65.57;100522.03;5072531;28;20507;-81
2022/06/15 06:23:19;;;;;;;10.50;8.05;;;;;;;16.04;65.44;100523.88;5070593;28;20051;-80
2022/06/15 06:25:50;;;;;;;8.98;7.82;;;;;;;16.19;65.13;100525.16;5067252;28;20401;-80
2022/06/15 06:28:27;;;;;;;12.23;7.97;;;;;;;16.28;64.73;100525.06;5072027;28;20059;-81
2022/06/15 06:30:58;;;;;;;9.07;7.75;;;;;;;16.41;64.15;100529.50;5066345;28;20537;-80
2022/06/15 06:33:26;;;;;;;9.55;7.82;;;;;;;16.49;64.02;100527.75;5071007;28;20085;-81
2022/06/15 06:35:54;;;;;;;10.25;7.35;;;;;;;16.55;63.58;100535.59;5072738;28;20052;-80
2022/06/15 06:38:22;;;;;;;10.82;7.90;;;;;;;16.66;63.29;100527.50;5080838;28;20067;-80
2022/06/15 06:40:50;;;;;;;9.85;7.28;;;;;;;16.77;63.51;100533.44;5069417;28;20059;-81
2022/06/15 06:43:17;;;;;;;9.13;6.85;;;;;;;16.86;62.86;100520.06;5069773;28;20049;-77
2022/06/15 06:45:45;;;;;;;10.25;7.68;;;;;;;17.00;62.75;100526.13;5061600;28;20052;-76
2022/06/15 06:48:14;;;;;;;9.55;6.78;;;;;;;17.12;62.47;100524.47;5068413;28;20079;-77
2022/06/15 06:50:42;;;;;;;6.95;6.25;;;;;;;17.21;62.10;100525.94;5092208;28;20059;-76
2022/06/15 06:53:11;;;;;;;9.77;7.03;;;;;;;17.33;61.89;100525.06;5082389;28;20056;-76
2022/06/15 06:55:38;;;;;;;9.75;6.25;;;;;;;17.44;61.53;100529.00;5068353;28;20064;-77
2022/06/15 06:58:06;;;;;;;12.63;7.18;;;;;;;17.51;60.97;100522.72;5066238;28;20053;-82
2022/06/15 07:00:35;;;;;;;8.52;7.20;;;;;;;17.62;60.49;100523.06;5068797;28;20059;-84
2022/06/15 07:03:04;;;;;;;10.68;6.65;;;;;;;17.71;60.77;100525.69;5072436;28;20075;-81
2022/06/15 07:05:35;;;;;;;9.23;6.57;;;;;;;17.88;59.98;100531.00;5068616;28;20055;-79
2022/06/15 07:08:04;;;;;;;11.00;6.93;;;;;;;17.93;59.61;100532.72;5072209;28;20048;-79
2022/06/15 07:10:32;;;;;;;8.88;6.22;;;;;;;18.02;59.55;100528.56;5066624;28;20072;-77
2022/06/15 07:13:06;;;;;;;8.05;6.60;;;;;;;18.12;59.40;100532.00;5070968;28;20056;-80
2022/06/15 07:15:33;;;;;;;7.72;6.05;;;;;;;18.25;59.29;100528.72;5062236;28;20048;-80
2022/06/15 07:18:02;;;;;;;7.88;5.80;;;;;;;18.38;59.03;100532.25;5070675;28;20052;-82
2022/06/15 07:20:31;;;;;;;10.03;6.30;;;;;;;18.52;58.97;100528.97;5069972;28;20052;-81
2022/06/15 07:22:59;;;;;;;12.23;6.47;;;;;;;18.54;58.22;100528.56;5069876;28;20494;-81
2022/06/15 07:25:27;;;;;;;10.60;6.15;;;;;;;18.67;58.25;100522.47;5067465;28;20514;-81
2022/06/15 07:27:54;;;;;;;6.68;5.40;;;;;;;18.81;57.89;100524.78;5070250;28;20074;-79
2022/06/15 07:30:24;;;;;;;8.20;5.68;;;;;;;18.91;58.17;100525.41;5070809;28;20055;-81
2022/06/15 07:32:52;;;;;;;7.68;5.28;;;;;;;19.09;57.42;100531.44;5068195;28;20045;-82
2022/06/15 07:35:24;;;;;;;8.15;5.50;;;;;;;19.17;57.22;100519.94;5071588;28;20044;-81
2022/06/15 07:37:52;;;;;;;6.07;5.20;;;;;;;19.26;56.49;100520.53;5067996;28;20070;-80
2022/06/15 07:40:23;;;;;;;5.78;4.43;;;;;;;19.43;57.00;100522.06;5065160;28;20063;-77
2022/06/15 07:42:51;;;;;;;6.22;4.47;;;;;;;19.56;55.90;100527.53;5067859;28;20048;-79
2022/06/15 07:45:21;;;;;;;6.35;4.53;;;;;;;19.67;54.92;100520.06;5064878;28;20476;-78
2022/06/15 07:50:34;;;;;;;8.30;4.82;;;;;;;19.87;53.98;100524.53;5068373;28;20055;-80
2022/06/15 07:53:03;;;;;;;7.95;4.07;;;;;;;20.06;54.05;100523.63;5066913;28;20053;-77
2022/06/15 07:55:34;;;;;;;;;;;;;;;20.25;53.45;100519.91;5065753;28;20064;-78
2022/06/15 07:58:01;;;;;;;5.60;3.83;;;;;;;20.98;51.93;100511.31;5068609;28;19936;-78
2022/06/15 08:00:29;;;;;;;5.90;3.47;;;;;;;22.15;48.39;100518.63;5060945;28;20079;-78
2022/06/15 08:02:57;;;;;;;4.38;3.22;;;;;;;23.37;46.33;100522.25;5058248;28;20690;-75
2022/06/15 08:05:26;;;;;;;5.40;3.35;;;;;;;24.31;42.63;100526.84;5059768;28;20060;-80
2022/06/15 08:07:54;;;;;;;4.78;3.00;;;;;;;25.28;39.61;100508.75;5053605;28;20064;-80
2022/06/15 08:10:24;;;;;;;4.28;2.58;;;;;;;26.17;37.21;100510.25;5067572;28;20045;-78
2022/06/15 08:12:53;;;;;;;4.50;2.38;;;;;;;27.01;35.55;100514.72;5062089;28;20496;-79
2022/06/15 08:15:22;;;;;;;4.55;2.25;;;;;;;28.11;34.98;100523.00;5062832;28;20507;-77
2022/06/15 08:17:53;;;;;;;3.95;2.40;;;;;;;29.30;30.96;100506.50;5066250;28;20044;-79
2022/06/15 08:20:26;;;;;;;3.85;2.30;;;;;;;30.28;30.39;100505.81;5062055;28;20404;-80
2022/06/15 08:22:59;;;;;;;5.78;2.67;;;;;;;31.44;28.84;100505.09;5064416;28;20048;-76
2022/06/15 08:25:29;;;;;;;4.13;2.85;;;;;;;32.53;27.74;100506.06;5063467;28;20777;-79
2022/06/15 08:27:59;;;;;;;4.88;2.30;;;;;;;33.39;26.64;100514.47;5060552;28;20061;-76
2022/06/15 08:30:28;;;;;;;5.80;3.00;;;;;;;34.64;24.40;100505.63;5062346;28;20439;-78
2022/06/15 08:32:55;;;;;;;5.20;2.25;;;;;;;35.39;23.49;100504.28;5063535;28;20429;-78
2022/06/15 08:35:23;;;;;;;5.00;2.58;;;;;;;36.17;22.93;100507.56;5061983;28;20048;-81
2022/06/15 08:37:51;;;;;;;4.60;2.33;;;;;;;36.64;22.31;100500.16;5064078;28;20056;-77
2022/06/15 08:40:18;;;;;;;4.57;2.20;;;;;;;37.41;22.36;100497.66;5065395;28;20081;-84
2022/06/15 08:42:55;;;;;;;3.03;2.20;;;;;;;38.40;20.50;100501.88;5064324;28;20052;-82
2022/06/15 08:45:32;;;;;;;4.72;2.63;;;;;;;39.02;19.40;100499.78;5059536;28;20408;-79
2022/06/15 08:48:14;;;;;;;4.43;2.20;;;;;;;39.55;19.20;100489.69;5057102;28;20420;-76
2022/06/15 08:50:48;;;;;;;2.97;1.90;;;;;;;40.30;18.28;100494.72;5063586;28;20503;-77
2022/06/15 08:53:19;;;;;;;5.00;2.58;;;;;;;40.94;17.65;100489.44;5053776;28;20048;-75
2022/06/15 08:55:50;;;;;;;4.40;2.25;;;;;;;41.05;16.53;100483.59;5056589;28;20052;-77
2022/06/15 08:58:26;;;;;;;3.92;2.08;;;;;;;41.73;17.13;100489.53;5061259;28;20063;-76
2022/06/15 09:01:02;;;;;;;6.10;2.40;;;;;;;41.74;17.07;100491.91;5065130;28;20044;-84
2022/06/15 09:03:41;;;;;;;5.68;2.35;;;;;;;42.42;15.84;100485.09;5067546;28;20045;-83
2022/06/15 09:06:20;;;;;;;5.57;2.20;;;;;;;43.04;15.09;100487.78;5064787;28;20045;-84
2022/06/15 09:09:00;;;;;;;5.43;2.30;;;;;;;43.57;14.34;100497.22;5068298;28;20090;-76
2022/06/15 09:11:40;;;;;;;4.60;2.00;;;;;;;44.10;14.35;100491.97;5065470;28;20053;-76
2022/06/15 09:14:24;;;;;;;4.57;2.20;;;;;;;44.58;13.54;100492.47;5068182;28;20052;-78
2022/06/15 09:16:59;;;;;;;3.47;2.10;;;;;;;44.75;13.88;100492.22;5062826;28;20064;-77
2022/06/15 09:19:32;;;;;;;3.53;1.80;;;;;;;45.30;13.23;100491.97;5060355;28;20057;-78
2022/06/15 09:22:04;;;;;;;5.97;2.05;;;;;;;45.52;13.31;100491.63;5067268;28;20071;-76
2022/06/15 09:24:38;;;;;;;4.28;2.10;;;;;;;46.08;12.33;100489.84;5067909;28;20048;-76
2022/06/15 09:27:15;;;;;;;4.35;2.33;;;;;;;45.98;11.40;100494.56;5064491;28;20056;-76
2022/06/15 09:29:48;;;;;;;4.20;2.13;;;;;;;46.26;12.05;100491.06;5068711;28;20051;-81
2022/06/15 09:32:21;;;;;;;4.95;2.10;;;;;;;46.90;11.58;100492.16;5066854;28;20404;-76
2022/06/15 09:34:54;;;;;;;3.78;1.80;;;;;;;46.58;12.08;100499.03;5065801;28;20061;-79
2022/06/15 09:37:25;;;;;;;5.28;2.03;;;;;;;46.74;12.17;100497.84;5067298;28;20044;-77
2022/06/15 09:39:52;;;;;;;4.25;1.92;;;;;;;47.62;11.73;100499.84;5068510;28;20424;-77
2022/06/15 09:42:22;;;;;;;4.07;2.00;;;;;;;48.40;11.30;100488.00;5067202;28;20389;-78
2022/06/15 09:45:00;;;;;;;4.78;2.50;;;;;;;48.84;10.77;100485.06;5064462;28;20056;-79
2022/06/15 09:47:42;;;;;;;3.72;2.03;;;;;;;48.58;11.00;100486.13;5068242;28;20060;-80
2022/06/15 09:50:19;;;;;;;2.65;1.88;;;;;;;49.54;9.77;100486.84;5064097;28;20059;-81
2022/06/15 09:52:56;;;;;;;;;;;;;;;49.56;9.37;100481.13;5065639;28;20127;-82
2022/06/15 09:55:30;;;;;;;5.50;2.40;;;;;;;49.83;9.76;100483.66;5062301;28;19920;-78
2022/06/15 09:57:58;;;;;;;2.95;1.92;;;;;;;50.40;9.51;100472.69;5066688;28;20055;-79
2022/06/15 10:00:28;;;;;;;4.63;2.17;;;;;;;50.85;9.52;100476.91;5067879;28;20111;-78
2022/06/15 10:03:00;;;;;;;2.92;2.03;;;;;;;50.80;9.62;100471.97;5066877;28;20061;-78
2022/06/15 10:05:32;;;;;;;3.55;2.40;;;;;;;51.22;8.47;100466.19;5065110;28;20052;-78
2022/06/15 10:08:02;;;;;;;3.08;2.15;;;;;;;51.13;8.59;100461.69;5062271;28;20500;-79
2022/06/15 10:10:33;;;;;;;3.58;1.83;;;;;;;50.85;8.45;100465.03;5065332;28;20492;-79
2022/06/15 10:13:06;;;;;;;3.10;2.03;;;;;;;50.80;9.04;100466.81;5066035;28;20044;-79
2022/06/15 10:15:49;;;;;;;2.65;2.05;;;;;;;51.21;8.56;100461.66;5068169;28;20044;-79
2022/06/15 10:18:21;;;;;;;5.18;2.13;;;;;;;51.36;8.43;100458.56;5058200;28;20048;-77
2022/06/15 10:21:03;;;;;;;4.75;2.17;;;;;;;51.45;8.22;100466.03;5065848;28;20426;-78
2022/06/15 10:23:42;;;;;;;3.67;1.95;;;;;;;51.56;8.55;100465.56;5067569;28;20488;-79
2022/06/15 10:26:22;;;;;;;4.53;2.10;;;;;;;51.21;8.78;100464.63;5068950;28;20051;-78
2022/06/15 10:28:49;;;;;;;3.22;1.95;;;;;;;51.35;8.38;100459.19;5069992;28;20044;-78
2022/06/15 10:31:26;;;;;;;3.60;2.13;;;;;;;51.47;8.66;100457.31;5072775;28;20048;-79
2022/06/15 10:33:57;;;;;;;4.57;2.50;;;;;;;51.99;9.00;100473.69;5079815;28;20048;-79
2022/06/15 10:36:30;;;;;;;3.40;1.90;;;;;;;51.92;8.31;100470.19;5076913;28;20055;-78
2022/06/15 10:39:04;;;;;;;5.43;2.35;;;;;;;52.15;8.57;100457.31;5075187;28;20052;-79
2022/06/15 10:41:47;;;;;;;3.38;2.13;;;;;;;52.01;8.59;100470.91;5072944;28;20151;-78
2022/06/15 10:44:24;;;;;;;3.28;2.03;;;;;;;51.54;8.95;100461.63;5076101;28;20056;-79
2022/06/15 10:46:54;;;;;;;3.08;1.80;;;;;;;51.20;8.93;100456.31;5080418;28;20056;-79
2022/06/15 10:49:24;;;;;;;3.30;2.05;;;;;;;51.32;8.60;100464.13;5080783;28;20499;-78
2022/06/15 10:51:52;;;;;;;3.95;2.13;;;;;;;50.92;8.90;100455.31;5065814;28;20052;-77
2022/06/15 10:54:32;;;;;;;4.00;2.20;;;;;;;50.89;8.96;100453.56;5062066;28;20051;-79
2022/06/15 11:03:09;;;;;;;4.00;2.17;;;;;;;50.63;8.38;100445.94;5043121;28;20610;-77
2022/06/15 11:05:39;;;;;;;6.88;2.55;;;;;;;49.72;9.11;100442.63;5040299;28;20874;-77
2022/06/15 11:08:17;;;;;;;4.57;2.20;;;;;;;49.74;8.77;100446.56;5039055;28;20120;-79
2022/06/15 11:10:48;;;;;;;2.72;1.80;;;;;;;50.09;9.12;100435.06;5039759;28;20393;-79
2022/06/15 11:13:38;;;;;;;3.90;1.88;;;;;;;50.41;9.35;100432.81;5037140;28;20057;-77
2022/06/15 11:19:16;;;;;;;2.72;1.75;;;;;;;49.52;9.07;100436.31;5040485;28;20067;-82
2022/06/15 11:21:52;;;;;;;3.75;1.70;;;;;;;48.69;9.38;100432.59;5038434;28;20060;-78
2022/06/15 11:24:32;;;;;;;4.70;2.80;;;;;;;49.10;9.58;100435.84;5040740;28;20048;-79
2022/06/15 11:27:04;;;;;;;3.72;1.83;;;;;;;49.46;9.17;100432.75;5039500;28;20057;-79
2022/06/15 11:29:52;;;;;;;2.88;1.98;;;;;;;49.87;8.92;100427.78;5038745;28;20075;-78
2022/06/15 11:32:40;;;;;;;5.00;2.08;;;;;;;50.23;9.49;100425.94;5040675;28;20056;-79
2022/06/15 11:35:26;;;;;;;5.78;2.20;;;;;;;50.14;8.66;100425.16;5047873;28;20064;-79
2022/06/15 11:38:00;;;;;;;2.80;1.98;;;;;;;50.35;9.21;100421.94;5045789;28;20076;-79
2022/06/15 11:40:37;;;;;;;3.63;2.20;;;;;;;49.83;9.09;100418.50;5040311;28;20057;-77
2022/06/15 11:43:19;;;;;;;4.47;2.20;;;;;;;49.94;9.28;100415.16;5041071;28;20062;-78
2022/06/15 11:46:11;;;;;;;8.23;2.45;;;;;;;49.68;9.45;100413.38;5041401;28;20451;-80
2022/06/15 11:48:58;;;;;;;4.63;2.28;;;;;;;49.58;9.46;100409.44;5037093;28;20053;-81
2022/06/15 11:51:37;;;;;;;4.88;2.10;;;;;;;49.24;9.67;100413.56;5045920;28;20425;-80
2022/06/15 11:54:21;;;;;;;3.08;1.95;;;;;;;49.21;9.33;100411.03;5045710;28;20496;-79
2022/06/15 11:56:58;;;;;;;3.33;2.17;;;;;;;49.29;9.72;100417.72;5046724;28;20389;-81
2022/06/15 11:59:35;;;;;;;5.10;2.00;;;;;;;49.19;9.51;100407.88;5053982;28;20048;-79
2022/06/15 12:02:17;;;;;;;4.57;2.10;;;;;;;49.03;9.91;100407.84;5065076;28;20055;-79
2022/06/15 12:05:16;;;;;;;3.80;1.98;;;;;;;48.83;9.77;100402.84;5062886;28;20481;-79
2022/06/15 12:07:56;;;;;;;4.50;3.30;;;;;;;48.49;9.75;100398.00;5061187;28;20419;-80
2022/06/15 12:10:37;;;;;;;4.68;2.38;;;;;;;47.13;10.43;100403.94;5063212;28;20523;-79
2022/06/15 12:13:13;;;;;;;2.50;2.20;;;;;;;46.88;10.63;100400.53;5066218;28;20055;-79
2022/06/15 12:15:45;;;;;;;5.60;4.57;;;;;;;46.72;10.65;100390.69;5066371;28;20476;-79
2022/06/15 12:18:48;;;;;;;4.88;2.35;;;;;;;46.25;10.36;100392.28;5063500;28;20412;-80
2022/06/15 12:21:23;;;;;;;4.28;2.30;;;;;;;46.55;10.65;100394.06;5062901;28;20071;-80
2022/06/15 12:23:59;;;;;;;4.35;2.03;;;;;;;46.80;11.33;100400.47;5062306;28;20052;-81
2022/06/15 12:26:38;;;;;;;2.92;2.00;;;;;;;46.72;11.12;100390.69;5065415;28;20063;-82